Weather at Balloon Fiesta Park

Public forecast

Using degrees Fahrenheit for public forecast. Weather courtesy of forecast.io.

Closest aviation weather report (METAR) to Balloon Fiesta Park

Closest report is Albuquerque International Sunport, 9.4 nm (17.4 km) S.

2024/07/17 11:52 (retrieved 55 minutes ago)

KABQ 171152Z 10016G26KT 10SM SCT150 BKN200 24/09 A3021 RMK AO2 PK WND 09026/1148 SLP124 T02440089 10289 20244 53010

Closest aviation forecast (TAF) to Balloon Fiesta Park

Closest forecast is Albuquerque International Sunport, 9.4 nm (17.4 km) S.

2024/07/17 12:27 (retrieved 20 minutes ago)

TAF KABQ 171125Z 1712/1812 09015G25KT P6SM BKN150 FM171500 08011KT P6SM SCT150 FM172100 13010KT P6SM VCTS SCT120CB FM172300 09022G32KT P6SM VCTS BKN100CB TEMPO 1801/1804 VRB20G35KT 3SM -TSRA OVC050CB FM180400 07012G20KT P6SM -SHRA OVC100 FM180600 09010KT P6SM BKN110